Time;durP1;ratioP1;P1;durP2;ratioP2;P2;SDS_P1;SDS_P2;PMS_P1;PMS_P2;Temp;Humidity;BMP_temperature;BMP_pressure;BME280_temperature;BME280_humidity;BME280_pressure;Samples;Min_cycle;Max_cycle;Signal;HPM_P1;HPM_P2
2022/03/13 00:00:44;;;;;;;14.83;9.83;;;;;;;;;;5016225;28;20585;-77
2022/03/13 00:03:10;;;;;;;13.87;10.93;;;;;;;;;;5016451;28;21025;-77
2022/03/13 00:05:38;;;;;;;20.60;10.40;;;;;;;;;;5016385;28;20395;-77
2022/03/13 00:08:16;;;;;;;13.83;9.07;;;;;;;;;;5016672;28;20946;-77
2022/03/13 00:10:43;;;;;;;13.07;9.17;;;;;;;;;;5016215;28;20383;-77
2022/03/13 00:13:13;;;;;;;15.07;10.00;;;;;;;;;;5016098;28;20422;-77
2022/03/13 00:15:41;;;;;;;12.53;9.40;;;;;;;;;;5016021;28;20387;-77
2022/03/13 00:18:11;;;;;;;11.20;8.80;;;;;;;;;;5014588;28;20410;-77
2022/03/13 00:20:38;;;;;;;19.30;9.57;;;;;;;;;;5015777;28;20534;-77
2022/03/13 00:23:05;;;;;;;12.73;8.80;;;;;;;;;;5016379;28;20868;-77
2022/03/13 00:25:31;;;;;;;13.63;10.00;;;;;;;;;;5015937;28;20391;-77
2022/03/13 00:27:57;;;;;;;13.43;8.50;;;;;;;;;;5015815;28;20407;-77
2022/03/13 00:30:23;;;;;;;12.60;9.00;;;;;;;;;;5015787;28;20406;-77
2022/03/13 00:32:50;;;;;;;12.83;8.57;;;;;;;;;;5016118;28;20427;-77
2022/03/13 00:35:16;;;;;;;16.10;9.80;;;;;;;;;;5014891;28;20415;-78
2022/03/13 00:37:42;;;;;;;12.20;8.83;;;;;;;;;;5016126;28;20431;-77
2022/03/13 00:40:10;;;;;;;14.70;10.60;;;;;;;;;;5015829;28;20404;-77
2022/03/13 00:42:37;;;;;;;15.97;10.63;;;;;;;;;;5015903;28;20465;-77
2022/03/13 00:45:03;;;;;;;14.57;9.70;;;;;;;;;;5015525;28;20460;-77
2022/03/13 00:47:29;;;;;;;12.00;8.90;;;;;;;;;;5015325;28;20399;-78
2022/03/13 00:49:55;;;;;;;16.27;8.60;;;;;;;;;;5015769;28;20410;-77
2022/03/13 00:52:21;;;;;;;16.67;8.50;;;;;;;;;;5015162;28;20423;-77
2022/03/13 00:54:48;;;;;;;14.50;8.07;;;;;;;;;;5015516;28;20892;-77
2022/03/13 00:57:14;;;;;;;16.97;9.87;;;;;;;;;;5015675;28;20403;-77
2022/03/13 00:59:40;;;;;;;14.20;8.57;;;;;;;;;;5013892;28;20483;-77
2022/03/13 01:02:06;;;;;;;8.90;7.33;;;;;;;;;;5015090;28;20509;-77
2022/03/13 01:04:32;;;;;;;16.00;8.80;;;;;;;;;;5015604;28;20904;-77
2022/03/13 01:06:58;;;;;;;10.80;8.23;;;;;;;;;;5014827;28;20399;-77
2022/03/13 01:09:24;;;;;;;13.30;8.53;;;;;;;;;;5015130;28;20766;-77
2022/03/13 01:11:50;;;;;;;15.53;8.40;;;;;;;;;;5015143;28;20423;-77
2022/03/13 01:14:17;;;;;;;12.17;8.23;;;;;;;;;;5015126;28;20419;-77
2022/03/13 01:16:44;;;;;;;15.47;9.60;;;;;;;;;;5022156;28;20406;-76
2022/03/13 01:19:10;;;;;;;13.30;8.90;;;;;;;;;;5017400;28;20919;-76
2022/03/13 01:21:40;;;;;;;12.20;8.77;;;;;;;;;;5013327;28;20467;-76
2022/03/13 01:24:06;;;;;;;11.93;8.10;;;;;;;;;;5014770;28;20489;-76
2022/03/13 01:26:36;;;;;;;16.37;9.73;;;;;;;;;;5014690;28;20475;-76
2022/03/13 01:29:03;;;;;;;13.13;8.30;;;;;;;;;;5013626;28;20547;-76
2022/03/13 01:31:30;;;;;;;14.33;8.40;;;;;;;;;;5013970;28;20499;-76
2022/03/13 01:33:57;;;;;;;11.40;8.57;;;;;;;;;;5014373;28;20495;-76
2022/03/13 01:36:23;;;;;;;12.73;8.87;;;;;;;;;;5014636;28;20400;-76
2022/03/13 01:38:52;;;;;;;11.13;8.97;;;;;;;;;;5014595;28;20486;-76
2022/03/13 01:41:18;;;;;;;10.23;7.30;;;;;;;;;;5013951;28;20462;-76
2022/03/13 01:43:45;;;;;;;11.70;8.20;;;;;;;;;;5014379;28;20442;-77
2022/03/13 01:46:11;;;;;;;10.60;7.60;;;;;;;;;;5014139;28;20399;-76
2022/03/13 01:48:41;;;;;;;15.33;7.60;;;;;;;;;;5014166;28;20449;-76
2022/03/13 01:51:08;;;;;;;15.70;8.07;;;;;;;;;;5012715;28;20787;-77
2022/03/13 01:53:34;;;;;;;11.80;8.00;;;;;;;;;;5014189;28;20410;-77
2022/03/13 01:56:00;;;;;;;11.53;7.67;;;;;;;;;;5014092;28;20391;-77
2022/03/13 01:58:26;;;;;;;12.53;7.53;;;;;;;;;;5012730;28;20430;-77
2022/03/13 02:00:55;;;;;;;9.80;7.73;;;;;;;;;;5014105;28;20478;-76
2022/03/13 02:03:22;;;;;;;12.33;7.67;;;;;;;;;;5014104;28;20944;-76
2022/03/13 02:05:48;;;;;;;13.37;7.87;;;;;;;;;;5014149;28;20398;-76
2022/03/13 02:08:17;;;;;;;10.77;7.73;;;;;;;;;;5014176;28;20541;-76
2022/03/13 02:10:43;;;;;;;13.43;8.80;;;;;;;;;;5013742;28;20439;-76
2022/03/13 02:13:11;;;;;;;13.90;8.27;;;;;;;;;;5013554;28;20427;-76
2022/03/13 02:15:38;;;;;;;9.90;8.10;;;;;;;;;;5013586;28;20412;-77
2022/03/13 02:18:04;;;;;;;11.73;7.93;;;;;;;;;;5013616;28;20407;-77
2022/03/13 02:20:30;;;;;;;10.43;7.10;;;;;;;;;;5012398;28;20503;-77
2022/03/13 02:23:00;;;;;;;9.00;6.90;;;;;;;;;;5014029;28;20505;-77
2022/03/13 02:25:31;;;;;;;12.80;7.00;;;;;;;;;;5013817;28;20816;-77
2022/03/13 02:27:58;;;;;;;13.50;8.27;;;;;;;;;;5013647;28;20442;-77
2022/03/13 02:30:25;;;;;;;12.90;8.30;;;;;;;;;;5013706;28;20423;-77
2022/03/13 02:32:52;;;;;;;18.87;8.10;;;;;;;;;;5013695;28;20462;-77
2022/03/13 02:35:18;;;;;;;11.40;6.87;;;;;;;;;;5013769;28;20844;-77
2022/03/13 02:37:44;;;;;;;14.50;8.10;;;;;;;;;;5013721;28;20410;-76
2022/03/13 02:40:16;;;;;;;10.20;7.60;;;;;;;;;;5013718;28;20913;-77
2022/03/13 02:42:42;;;;;;;11.80;8.60;;;;;;;;;;5016653;28;20474;-77
2022/03/13 02:45:08;;;;;;;10.93;7.27;;;;;;;;;;5017890;28;20545;-76
2022/03/13 02:47:34;;;;;;;10.43;6.70;;;;;;;;;;5013516;28;21038;-77
2022/03/13 02:50:00;;;;;;;10.70;7.60;;;;;;;;;;5013429;28;20462;-76
2022/03/13 02:52:27;;;;;;;13.60;8.50;;;;;;;;;;5013587;28;20942;-77
2022/03/13 02:54:53;;;;;;;10.13;7.83;;;;;;;;;;5013464;28;20399;-77
2022/03/13 02:57:19;;;;;;;11.70;6.77;;;;;;;;;;5011998;28;20494;-76
2022/03/13 02:59:45;;;;;;;12.87;6.43;;;;;;;;;;5013372;28;20403;-76
2022/03/13 03:02:11;;;;;;;9.90;7.23;;;;;;;;;;5013158;28;20478;-77
2022/03/13 03:04:37;;;;;;;8.57;5.93;;;;;;;;;;5013265;28;20430;-76
2022/03/13 03:07:04;;;;;;;11.57;7.03;;;;;;;;;;5013490;28;20825;-76
2022/03/13 03:09:32;;;;;;;9.10;6.80;;;;;;;;;;5013345;28;20404;-78
2022/03/13 03:11:59;;;;;;;12.00;7.60;;;;;;;;;;5013408;28;20427;-77
2022/03/13 03:14:25;;;;;;;8.97;7.27;;;;;;;;;;5011861;28;20871;-77
2022/03/13 03:16:54;;;;;;;15.13;8.50;;;;;;;;;;5013307;28;20404;-77
2022/03/13 03:19:20;;;;;;;12.27;7.50;;;;;;;;;;5013099;28;20414;-77
2022/03/13 03:21:46;;;;;;;12.30;7.60;;;;;;;;;;5012948;28;21139;-77
2022/03/13 03:24:13;;;;;;;12.83;8.03;;;;;;;;;;5013778;28;20406;-77
2022/03/13 03:26:40;;;;;;;16.10;8.57;;;;;;;;;;5011762;28;20407;-77
2022/03/13 03:29:06;;;;;;;12.20;9.03;;;;;;;;;;5013261;28;20411;-77
2022/03/13 03:31:32;;;;;;;10.47;8.00;;;;;;;;;;5012991;28;20467;-76
2022/03/13 03:33:58;;;;;;;11.70;8.90;;;;;;;;;;5011523;28;20941;-77
2022/03/13 03:36:24;;;;;;;12.47;8.00;;;;;;;;;;5012772;28;20407;-77
2022/03/13 03:38:50;;;;;;;10.40;8.27;;;;;;;;;;5012655;28;20404;-77
2022/03/13 03:41:16;;;;;;;12.10;8.50;;;;;;;;;;5012531;28;20443;-77
2022/03/13 03:43:42;;;;;;;14.37;8.43;;;;;;;;;;5012840;28;20478;-77
2022/03/13 03:46:08;;;;;;;13.37;9.03;;;;;;;;;;5012934;28;20880;-77
2022/03/13 03:48:34;;;;;;;10.37;7.93;;;;;;;;;;5012891;28;20407;-78
2022/03/13 03:51:00;;;;;;;16.17;10.90;;;;;;;;;;5012911;28;20924;-77
2022/03/13 03:53:26;;;;;;;14.07;8.40;;;;;;;;;;5013069;28;20880;-76
2022/03/13 03:55:52;;;;;;;11.17;8.67;;;;;;;;;;5016403;28;20407;-77
2022/03/13 03:58:21;;;;;;;13.40;8.00;;;;;;;;;;5016424;28;20490;-77
2022/03/13 04:00:47;;;;;;;13.60;8.10;;;;;;;;;;5016470;28;20443;-77
2022/03/13 04:03:13;;;;;;;12.47;7.50;;;;;;;;;;5016310;28;20487;-77
2022/03/13 04:05:39;;;;;;;12.90;7.80;;;;;;;;;;5016250;28;20400;-76
2022/03/13 04:08:05;;;;;;;12.93;8.40;;;;;;;;;;5014638;28;20400;-76
2022/03/13 04:10:31;;;;;;;15.50;9.00;;;;;;;;;;5016271;28;20414;-76
2022/03/13 04:12:57;;;;;;;13.90;7.93;;;;;;;;;;5015873;28;20502;-77
2022/03/13 04:15:23;;;;;;;12.70;7.83;;;;;;;;;;5015924;28;20426;-77
2022/03/13 04:17:50;;;;;;;10.37;7.70;;;;;;;;;;5014541;28;20856;-77
2022/03/13 04:20:16;;;;;;;10.30;6.60;;;;;;;;;;5018241;28;20431;-76
2022/03/13 04:22:42;;;;;;;11.83;8.07;;;;;;;;;;5034230;28;20445;-76
2022/03/13 04:25:09;;;;;;;10.10;7.87;;;;;;;;;;5035907;28;20418;-75
2022/03/13 04:27:35;;;;;;;9.90;7.60;;;;;;;;;;5035694;28;20433;-75
2022/03/13 04:30:01;;;;;;;19.70;9.13;;;;;;;;;;5035611;28;20398;-77
2022/03/13 04:32:27;;;;;;;12.13;7.53;;;;;;;;;;5035598;28;20458;-77
2022/03/13 04:34:53;;;;;;;11.30;7.70;;;;;;;;;;5035657;28;20409;-76
2022/03/13 04:37:22;;;;;;;18.73;7.90;;;;;;;;;;5035676;28;20402;-77
2022/03/13 04:39:50;;;;;;;13.17;8.20;;;;;;;;;;5035276;28;20941;-76
2022/03/13 04:42:17;;;;;;;9.20;7.30;;;;;;;;;;5034835;28;20473;-76
2022/03/13 04:44:44;;;;;;;9.33;7.17;;;;;;;;;;5035217;28;20410;-76
2022/03/13 04:47:10;;;;;;;12.27;7.10;;;;;;;;;;5035225;28;20409;-76
2022/03/13 04:49:36;;;;;;;10.87;7.77;;;;;;;;;;5035338;28;20407;-77
2022/03/13 04:52:02;;;;;;;11.93;8.27;;;;;;;;;;5033606;28;20801;-76
2022/03/13 04:54:28;;;;;;;13.90;8.83;;;;;;;;;;5035426;28;20761;-77
2022/03/13 04:56:54;;;;;;;11.37;7.90;;;;;;;;;;5034966;28;20895;-76
2022/03/13 04:59:20;;;;;;;11.50;7.73;;;;;;;;;;5033624;28;20406;-76
2022/03/13 05:01:46;;;;;;;12.07;7.97;;;;;;;;;;5035135;28;20469;-77
2022/03/13 05:04:13;;;;;;;11.70;7.83;;;;;;;;;;5034828;28;20398;-77
2022/03/13 05:06:43;;;;;;;10.10;7.83;;;;;;;;;;5027839;28;20419;-77
2022/03/13 05:09:09;;;;;;;11.03;8.07;;;;;;;;;;5015179;28;20407;-77
2022/03/13 05:11:35;;;;;;;12.37;7.77;;;;;;;;;;5015504;28;20423;-77
2022/03/13 05:14:01;;;;;;;10.60;8.47;;;;;;;;;;5015068;28;20950;-77
2022/03/13 05:16:27;;;;;;;10.87;8.50;;;;;;;;;;5023719;28;20499;-76
2022/03/13 05:18:54;;;;;;;13.63;7.90;;;;;;;;;;5015692;28;20407;-76
2022/03/13 05:21:20;;;;;;;11.17;8.33;;;;;;;;;;5014787;28;20493;-77
2022/03/13 05:23:46;;;;;;;11.47;7.90;;;;;;;;;;5013386;28;20403;-77
2022/03/13 05:26:12;;;;;;;14.97;8.10;;;;;;;;;;5014833;28;20457;-77
2022/03/13 05:28:39;;;;;;;11.30;8.07;;;;;;;;;;5015075;28;20409;-77
2022/03/13 05:31:05;;;;;;;11.70;7.80;;;;;;;;;;5013410;28;20428;-77
2022/03/13 05:33:31;;;;;;;13.60;7.87;;;;;;;;;;5014734;28;20456;-76
2022/03/13 05:35:59;;;;;;;11.70;8.33;;;;;;;;;;5014807;28;20486;-77
2022/03/13 05:38:25;;;;;;;13.40;8.27;;;;;;;;;;5014264;28;20466;-76
2022/03/13 05:40:52;;;;;;;14.10;9.30;;;;;;;;;;5014194;28;20470;-76
2022/03/13 05:43:22;;;;;;;11.37;8.10;;;;;;;;;;5040254;23;20518;-74
2022/03/13 05:45:48;;;;;;;13.40;8.87;;;;;;;;;;5034130;28;20493;-74
2022/03/13 05:48:17;;;;;;;15.43;9.43;;;;;;;;;;5034007;28;20437;-74
2022/03/13 05:50:44;;;;;;;10.83;8.20;;;;;;;;;;5033066;28;20403;-75
2022/03/13 05:53:10;;;;;;;14.70;9.17;;;;;;;;;;5032159;28;20868;-75
2022/03/13 05:55:36;;;;;;;19.70;10.50;;;;;;;;;;5033266;28;20401;-74
2022/03/13 05:58:03;;;;;;;12.00;9.10;;;;;;;;;;5033589;28;20411;-74
2022/03/13 06:00:32;;;;;;;12.33;9.13;;;;;;;;;;5033516;28;20455;-74
2022/03/13 06:03:00;;;;;;;18.83;9.77;;;;;;;;;;5033518;28;20466;-74
2022/03/13 06:05:26;;;;;;;16.70;10.70;;;;;;;;;;5033748;28;20394;-74
2022/03/13 06:07:53;;;;;;;10.53;8.03;;;;;;;;;;5033827;28;20402;-74
2022/03/13 06:10:19;;;;;;;14.00;8.73;;;;;;;;;;5033749;28;20869;-74
2022/03/13 06:12:45;;;;;;;17.47;9.07;;;;;;;;;;5033532;28;20425;-74
2022/03/13 06:15:12;;;;;;;12.87;9.57;;;;;;;;;;5033850;28;20398;-75
2022/03/13 06:17:45;;;;;;;13.30;8.33;;;;;;;;;;5033200;28;20437;-76
2022/03/13 06:20:12;;;;;;;12.57;8.90;;;;;;;;;;5032445;28;20414;-74
2022/03/13 06:22:39;;;;;;;10.83;8.30;;;;;;;;;;5032307;28;20430;-74
2022/03/13 06:25:06;;;;;;;13.20;7.90;;;;;;;;;;5033260;28;20895;-74
2022/03/13 06:27:32;;;;;;;13.10;8.73;;;;;;;;;;5032596;28;20415;-74
2022/03/13 06:30:05;;;;;;;15.07;8.77;;;;;;;;;;5032667;28;20455;-74
2022/03/13 06:32:33;;;;;;;13.90;9.37;;;;;;;;;;5032872;28;20925;-74
2022/03/13 06:34:59;;;;;;;12.30;8.60;;;;;;;;;;5032230;28;20414;-74
2022/03/13 06:37:25;;;;;;;10.90;9.00;;;;;;;;;;5032820;28;20453;-75
2022/03/13 06:39:51;;;;;;;12.10;9.03;;;;;;;;;;5033006;28;20419;-75
2022/03/13 06:42:18;;;;;;;15.00;8.47;;;;;;;;;;5035346;28;20458;-75
2022/03/13 06:44:44;;;;;;;17.33;9.30;;;;;;;;;;5039814;28;20411;-75
2022/03/13 06:47:10;;;;;;;14.77;9.33;;;;;;;;;;5033218;28;20826;-74
2022/03/13 06:49:37;;;;;;;12.67;8.80;;;;;;;;;;5032693;28;20845;-75
2022/03/13 06:52:03;;;;;;;17.70;9.33;;;;;;;;;;5032554;28;20426;-74
2022/03/13 06:54:29;;;;;;;12.60;9.00;;;;;;;;;;5031940;28;20422;-74
2022/03/13 06:56:55;;;;;;;14.20;9.20;;;;;;;;;;5032475;28;20471;-74
2022/03/13 06:59:21;;;;;;;17.30;9.23;;;;;;;;;;5028003;28;20417;-74
2022/03/13 07:01:47;;;;;;;13.00;9.53;;;;;;;;;;5023417;28;20489;-74
2022/03/13 07:04:14;;;;;;;19.63;9.20;;;;;;;;;;5030878;28;20934;-74
2022/03/13 07:06:41;;;;;;;16.00;10.20;;;;;;;;;;5031090;28;20776;-75
2022/03/13 07:09:07;;;;;;;13.87;9.30;;;;;;;;;;5032422;28;20414;-75
2022/03/13 07:11:34;;;;;;;14.40;10.00;;;;;;;;;;5032625;28;20831;-73
2022/03/13 07:14:02;;;;;;;13.33;9.27;;;;;;;;;;5032357;28;20778;-74
2022/03/13 07:16:28;;;;;;;13.13;9.60;;;;;;;;;;5018879;28;20590;-74
2022/03/13 07:18:54;;;;;;;17.20;9.20;;;;;;;;;;5016272;28;20399;-74
2022/03/13 07:21:20;;;;;;;15.23;10.47;;;;;;;;;;5033088;28;20446;-74
2022/03/13 07:23:46;;;;;;;13.20;9.80;;;;;;;;;;5032655;28;20450;-75
2022/03/13 07:26:13;;;;;;;15.93;9.80;;;;;;;;;;5032780;28;20406;-74
2022/03/13 07:28:39;;;;;;;16.43;11.37;;;;;;;;;;5032619;28;20449;-74
2022/03/13 07:31:05;;;;;;;15.50;10.27;;;;;;;;;;5036330;28;20457;-74
2022/03/13 07:33:32;;;;;;;15.43;9.23;;;;;;;;;;5036454;28;20850;-74
2022/03/13 07:35:58;;;;;;;14.43;8.87;;;;;;;;;;5036620;28;20406;-74
2022/03/13 07:38:24;;;;;;;13.47;9.83;;;;;;;;;;5035145;28;20416;-74
2022/03/13 07:40:50;;;;;;;13.97;9.73;;;;;;;;;;5036635;28;20498;-74
2022/03/13 07:43:17;;;;;;;13.93;10.77;;;;;;;;;;5035446;28;20875;-74
2022/03/13 07:45:43;;;;;;;17.77;10.57;;;;;;;;;;5035491;28;20425;-74
2022/03/13 07:48:09;;;;;;;14.50;9.23;;;;;;;;;;5036618;28;20399;-74
2022/03/13 07:50:35;;;;;;;14.70;9.60;;;;;;;;;;5034123;28;20425;-74
2022/03/13 07:53:01;;;;;;;15.50;10.90;;;;;;;;;;5036244;28;20430;-74
2022/03/13 07:55:27;;;;;;;12.60;9.60;;;;;;;;;;5036535;28;20418;-75
2022/03/13 07:57:53;;;;;;;16.37;10.40;;;;;;;;;;5036646;28;20448;-74
2022/03/13 08:00:22;;;;;;;17.17;10.57;;;;;;;;;;5036111;28;20434;-75
2022/03/13 08:02:48;;;;;;;15.93;10.53;;;;;;;;;;5033904;28;20454;-76
2022/03/13 08:05:15;;;;;;;16.17;10.83;;;;;;;;;;5035752;28;20407;-74
2022/03/13 08:07:41;;;;;;;14.70;9.80;;;;;;;;;;5030365;28;20450;-75
2022/03/13 08:10:08;;;;;;;15.03;10.30;;;;;;;;;;5016052;28;20847;-75
2022/03/13 08:12:34;;;;;;;20.33;13.30;;;;;;;;;;5026286;28;20426;-75
2022/03/13 08:15:01;;;;;;;15.90;10.20;;;;;;;;;;5035814;28;20406;-75
2022/03/13 08:17:27;;;;;;;13.30;9.93;;;;;;;;;;5035798;28;20410;-75
2022/03/13 08:19:56;;;;;;;15.17;10.87;;;;;;;;;;5036137;28;20407;-75
2022/03/13 08:22:23;;;;;;;15.67;10.70;;;;;;;;;;5035666;28;20457;-75
2022/03/13 08:24:49;;;;;;;16.23;10.90;;;;;;;;;;5035647;28;20406;-75
2022/03/13 08:27:15;;;;;;;15.67;10.10;;;;;;;;;;5035517;28;20407;-75
2022/03/13 08:29:41;;;;;;;15.17;10.47;;;;;;;;;;5035552;28;20430;-74
2022/03/13 08:32:08;;;;;;;15.63;11.67;;;;;;;;;;5035142;28;20790;-74
2022/03/13 08:34:34;;;;;;;16.23;11.40;;;;;;;;;;5035292;28;20407;-74
2022/03/13 08:37:00;;;;;;;18.30;12.20;;;;;;;;;;5035585;28;20945;-74
2022/03/13 08:39:27;;;;;;;14.47;10.67;;;;;;;;;;5035268;28;20460;-76
2022/03/13 08:41:53;;;;;;;17.00;11.27;;;;;;;;;;5031772;28;21039;-76
2022/03/13 08:44:19;;;;;;;14.23;10.67;;;;;;;;;;5016522;28;20450;-76
2022/03/13 08:46:45;;;;;;;16.70;12.50;;;;;;;;;;5033887;28;20414;-76
2022/03/13 08:49:12;;;;;;;19.13;11.70;;;;;;;;;;5034255;28;20827;-76
2022/03/13 08:51:38;;;;;;;17.60;11.93;;;;;;;;;;5034771;28;20430;-75
2022/03/13 08:54:04;;;;;;;14.37;11.80;;;;;;;;;;5034293;28;20458;-75
2022/03/13 08:56:31;;;;;;;16.40;11.40;;;;;;;;;;5023081;28;20419;-75
2022/03/13 08:58:57;;;;;;;19.23;10.80;;;;;;;;;;5033735;28;20552;-75
2022/03/13 09:01:25;;;;;;;18.80;13.20;;;;;;;;;;5035383;28;20636;-74
2022/03/13 09:03:51;;;;;;;13.40;11.13;;;;;;;;;;5033471;28;20426;-75
2022/03/13 09:06:17;;;;;;;16.70;12.43;;;;;;;;;;5034866;28;20910;-75
2022/03/13 09:08:43;;;;;;;18.60;11.50;;;;;;;;;;5057948;28;20410;-75
2022/03/13 09:11:10;;;;;;;16.03;11.37;;;;;;;;;;5039851;28;20906;-75
2022/03/13 09:13:37;;;;;;;18.03;11.80;;;;;;;;;;5034224;28;20430;-75
2022/03/13 09:16:03;;;;;;;18.30;12.63;;;;;;;;;;5034926;28;20414;-75
2022/03/13 09:18:30;;;;;;;14.23;10.70;;;;;;;;;;5034690;28;20406;-75
2022/03/13 09:20:57;;;;;;;20.03;11.57;;;;;;;;;;5037975;28;20485;-75
2022/03/13 09:23:23;;;;;;;20.80;13.03;;;;;;;;;;5033869;28;20434;-75
2022/03/13 09:25:53;;;;;;;16.80;11.60;;;;;;;;;;5033708;28;20414;-76
2022/03/13 09:28:19;;;;;;;17.47;10.87;;;;;;;;;;5034354;28;20899;-76
2022/03/13 09:30:45;;;;;;;19.10;11.70;;;;;;;;;;5034748;28;20399;-76
2022/03/13 09:33:12;;;;;;;18.40;13.63;;;;;;;;;;5033973;28;20921;-75
2022/03/13 09:35:38;;;;;;;20.10;12.40;;;;;;;;;;5032924;28;20418;-75
2022/03/13 09:38:04;;;;;;;17.67;11.03;;;;;;;;;;5032868;28;20410;-76
2022/03/13 09:40:33;;;;;;;18.53;11.80;;;;;;;;;;5024846;28;20434;-76
2022/03/13 09:43:00;;;;;;;16.97;12.07;;;;;;;;;;5013864;28;20462;-76
2022/03/13 09:45:26;;;;;;;15.90;11.10;;;;;;;;;;5021058;28;20422;-75
2022/03/13 09:47:53;;;;;;;15.97;11.50;;;;;;;;;;5033780;28;20399;-75
2022/03/13 09:50:20;;;;;;;15.37;11.40;;;;;;;;;;5034192;28;20410;-75
2022/03/13 09:52:47;;;;;;;15.80;10.37;;;;;;;;;;5030198;28;20469;-75
2022/03/13 09:55:14;;;;;;;15.13;10.80;;;;;;;;;;5032070;28;20410;-76
2022/03/13 09:57:41;;;;;;;15.20;10.77;;;;;;;;;;5033793;28;20799;-75
2022/03/13 10:00:12;;;;;;;15.43;10.27;;;;;;;;;;5033602;28;20391;-76
2022/03/13 10:02:39;;;;;;;18.03;10.47;;;;;;;;;;5033284;28;20462;-75
2022/03/13 10:05:08;;;;;;;14.90;11.40;;;;;;;;;;5033898;28;20390;-76
2022/03/13 10:07:53;;;;;;;15.80;10.43;;;;;;;;;;5033280;28;20421;-76
2022/03/13 10:10:20;;;;;;;15.83;11.00;;;;;;;;;;5031783;28;20476;-75
2022/03/13 10:12:46;;;;;;;13.63;10.63;;;;;;;;;;5032487;28;20965;-75
2022/03/13 10:15:13;;;;;;;16.57;11.47;;;;;;;;;;5033800;28;20407;-76
2022/03/13 10:17:40;;;;;;;16.00;11.63;;;;;;;;;;5033295;28;20592;-76
2022/03/13 10:20:19;;;;;;;14.90;10.20;;;;;;;;;;5033232;28;20472;-75
2022/03/13 10:22:46;;;;;;;16.93;11.50;;;;;;;;;;5032891;28;20442;-76
2022/03/13 10:25:14;;;;;;;15.43;11.67;;;;;;;;;;5023544;28;20841;-76
2022/03/13 10:27:43;;;;;;;16.10;10.90;;;;;;;;;;5021367;28;20410;-76
2022/03/13 10:30:10;;;;;;;15.00;10.57;;;;;;;;;;5014211;28;20419;-76
2022/03/13 10:32:37;;;;;;;17.47;11.70;;;;;;;;;;5013711;28;20530;-76
2022/03/13 10:35:03;;;;;;;14.53;10.13;;;;;;;;;;5013737;28;20774;-75
2022/03/13 10:37:33;;;;;;;14.93;9.93;;;;;;;;;;5013819;28;20819;-75
2022/03/13 10:40:09;;;;;;;16.23;12.07;;;;;;;;;;5022658;28;20786;-75
2022/03/13 10:42:43;;;;;;;15.20;11.10;;;;;;;;;;5032819;28;20468;-75
2022/03/13 10:45:10;;;;;;;17.63;11.30;;;;;;;;;;5038289;28;20493;-76
2022/03/13 10:47:37;;;;;;;13.33;10.07;;;;;;;;;;5038714;28;20418;-75
2022/03/13 10:50:04;;;;;;;15.77;10.57;;;;;;;;;;5032512;28;20422;-75
2022/03/13 10:52:41;;;;;;;15.97;11.80;;;;;;;;;;5032211;28;20438;-75
2022/03/13 10:55:16;;;;;;;17.13;11.70;;;;;;;;;;5032726;28;20415;-75
2022/03/13 10:58:09;;;;;;;18.43;11.60;;;;;;;;;;5033494;28;20402;-75
2022/03/13 11:00:35;;;;;;;17.20;12.23;;;;;;;;;;5030269;28;20438;-75
2022/03/13 11:03:12;;;;;;;15.60;11.00;;;;;;;;;;5029751;28;20526;-75
2022/03/13 11:05:39;;;;;;;18.70;11.53;;;;;;;;;;5033018;28;20413;-75
2022/03/13 11:08:07;;;;;;;14.00;10.67;;;;;;;;;;5040074;28;20766;-75
2022/03/13 11:10:34;;;;;;;18.67;11.57;;;;;;;;;;5038328;28;20493;-75
2022/03/13 11:13:01;;;;;;;16.87;12.20;;;;;;;;;;5039779;28;20474;-75
2022/03/13 11:15:30;;;;;;;16.67;10.90;;;;;;;;;;5039561;28;20394;-75
2022/03/13 11:18:01;;;;;;;15.90;11.67;;;;;;;;;;5039554;28;20406;-75
2022/03/13 11:20:28;;;;;;;19.10;12.27;;;;;;;;;;5038926;28;20501;-75
2022/03/13 11:22:54;;;;;;;15.47;11.33;;;;;;;;;;5039615;28;20453;-75
2022/03/13 11:25:22;;;;;;;14.23;11.47;;;;;;;;;;5039445;28;20485;-75
2022/03/13 11:27:49;;;;;;;21.30;13.20;;;;;;;;;;5035139;28;20433;-75
2022/03/13 11:30:17;;;;;;;16.60;11.03;;;;;;;;;;5039444;28;20406;-75
2022/03/13 11:32:47;;;;;;;16.97;11.77;;;;;;;;;;5039066;28;20414;-75
2022/03/13 11:35:16;;;;;;;16.80;11.50;;;;;;;;;;5039368;28;20490;-76
2022/03/13 11:37:42;;;;;;;17.60;11.70;;;;;;;;;;5039041;28;20406;-75
2022/03/13 11:40:09;;;;;;;18.00;11.73;;;;;;;;;;5038713;28;20472;-74
2022/03/13 11:42:48;;;;;;;20.23;12.00;;;;;;;;;;5061974;23;20509;-77
2022/03/13 11:45:35;;;;;;;18.67;13.47;;;;;;;;;;5032458;28;20967;-77
2022/03/13 11:48:14;;;;;;;19.43;11.37;;;;;;;;;;5039366;28;20371;-77
2022/03/13 11:50:47;;;;;;;16.53;11.57;;;;;;;;;;5038781;28;20428;-77
2022/03/13 11:53:20;;;;;;;14.47;10.33;;;;;;;;;;5032732;28;20435;-77
2022/03/13 11:56:02;;;;;;;16.83;9.80;;;;;;;;;;5020824;28;20807;-76
2022/03/13 11:58:45;;;;;;;15.90;10.90;;;;;;;;;;5017509;28;20422;-76
2022/03/13 12:01:21;;;;;;;16.27;10.93;;;;;;;;;;5018164;28;20958;-77
2022/03/13 12:04:05;;;;;;;15.37;10.53;;;;;;;;;;5020028;28;20902;-76
2022/03/13 12:06:48;;;;;;;15.20;10.17;;;;;;;;;;5019270;28;20502;-75
2022/03/13 12:09:18;;;;;;;14.10;11.10;;;;;;;;;;5020396;28;20416;-76
2022/03/13 12:11:50;;;;;;;15.87;10.33;;;;;;;;;;5020322;28;20414;-76
2022/03/13 12:14:17;;;;;;;15.03;9.90;;;;;;;;;;5018498;28;20419;-76
2022/03/13 12:16:44;;;;;;;16.40;10.40;;;;;;;;;;5015683;28;20458;-76
2022/03/13 12:19:11;;;;;;;15.93;10.20;;;;;;;;;;5016757;28;20886;-77
2022/03/13 12:21:37;;;;;;;14.17;9.20;;;;;;;;;;5016345;28;20459;-77
2022/03/13 12:24:17;;;;;;;14.10;10.03;;;;;;;;;;5015200;28;20438;-76
2022/03/13 12:26:44;;;;;;;14.67;9.53;;;;;;;;;;5016983;28;20453;-76
2022/03/13 12:29:14;;;;;;;13.50;9.50;;;;;;;;;;5016674;28;20473;-76
2022/03/13 12:31:41;;;;;;;13.30;9.10;;;;;;;;;;5014970;28;20412;-76
2022/03/13 12:34:07;;;;;;;10.60;8.50;;;;;;;;;;5014592;28;20557;-76
2022/03/13 12:36:37;;;;;;;12.70;9.93;;;;;;;;;;5015889;28;20417;-76
2022/03/13 12:39:08;;;;;;;12.13;9.50;;;;;;;;;;5015777;28;20435;-76
2022/03/13 12:41:35;;;;;;;12.03;8.93;;;;;;;;;;5015649;28;20520;-76
2022/03/13 12:44:05;;;;;;;15.03;10.77;;;;;;;;;;5014036;28;20885;-76
2022/03/13 12:46:32;;;;;;;14.17;9.87;;;;;;;;;;5016074;28;20427;-77
2022/03/13 12:48:59;;;;;;;17.20;10.43;;;;;;;;;;5015538;28;20404;-76
2022/03/13 12:51:35;;;;;;;15.27;9.37;;;;;;;;;;5015358;28;20774;-76
2022/03/13 12:54:07;;;;;;;13.80;10.00;;;;;;;;;;5015069;28;20423;-76
2022/03/13 12:56:35;;;;;;;13.67;9.93;;;;;;;;;;5015135;28;20895;-76
2022/03/13 12:59:01;;;;;;;16.47;9.50;;;;;;;;;;5015421;28;20411;-76
2022/03/13 13:01:27;;;;;;;13.70;10.33;;;;;;;;;;5015052;28;20462;-76
2022/03/13 13:03:54;;;;;;;12.67;9.07;;;;;;;;;;5030128;28;20442;-76
2022/03/13 13:06:30;;;;;;;13.30;9.80;;;;;;;;;;5015275;28;20411;-76
2022/03/13 13:08:57;;;;;;;18.63;10.10;;;;;;;;;;5014963;28;20407;-76
2022/03/13 13:11:35;;;;;;;12.77;8.77;;;;;;;;;;5019667;28;20414;-77
2022/03/13 13:14:01;;;;;;;15.93;9.03;;;;;;;;;;5016906;28;20419;-77
2022/03/13 13:16:29;;;;;;;14.30;9.70;;;;;;;;;;5015156;28;20404;-76
2022/03/13 13:18:55;;;;;;;13.17;10.10;;;;;;;;;;5014977;28;20990;-76
2022/03/13 13:21:40;;;;;;;14.67;10.60;;;;;;;;;;5014888;28;20455;-76
2022/03/13 13:24:33;;;;;;;12.23;9.07;;;;;;;;;;5015010;28;20434;-77
2022/03/13 13:26:59;;;;;;;13.43;9.53;;;;;;;;;;5013522;28;20384;-76
2022/03/13 13:29:35;;;;;;;13.50;9.57;;;;;;;;;;5014799;28;20399;-77
2022/03/13 13:32:20;;;;;;;14.80;9.13;;;;;;;;;;5014564;28;20490;-77
2022/03/13 13:35:05;;;;;;;13.50;10.53;;;;;;;;;;5014583;28;20483;-77
2022/03/13 13:37:31;;;;;;;14.70;9.93;;;;;;;;;;5014621;28;20513;-77
2022/03/13 13:40:19;;;;;;;13.43;9.03;;;;;;;;;;5014620;28;20399;-77
2022/03/13 13:42:53;;;;;;;16.03;8.80;;;;;;;;;;5014413;28;20578;-77
2022/03/13 13:45:22;;;;;;;12.70;8.87;;;;;;;;;;5015363;28;20411;-77
2022/03/13 13:47:49;;;;;;;13.03;8.87;;;;;;;;;;5015552;28;20781;-76
2022/03/13 13:50:16;;;;;;;12.90;8.70;;;;;;;;;;5014144;28;20403;-76
2022/03/13 13:52:42;;;;;;;13.17;9.10;;;;;;;;;;5014124;28;21002;-76
2022/03/13 13:55:24;;;;;;;14.63;8.90;;;;;;;;;;5014178;28;20435;-76
2022/03/13 13:58:08;;;;;;;16.57;9.70;;;;;;;;;;5014010;28;20450;-76
2022/03/13 14:00:35;;;;;;;13.77;9.47;;;;;;;;;;5014099;28;20395;-76
2022/03/13 14:03:01;;;;;;;14.00;11.33;;;;;;;;;;5012667;28;20811;-76
2022/03/13 14:05:27;;;;;;;13.53;9.07;;;;;;;;;;5013861;28;20412;-76
2022/03/13 14:07:53;;;;;;;12.87;9.60;;;;;;;;;;5013955;28;20406;-76
2022/03/13 14:10:19;;;;;;;13.90;8.67;;;;;;;;;;5013848;28;20410;-76
2022/03/13 14:12:48;;;;;;;14.20;9.83;;;;;;;;;;5014598;28;20801;-76
2022/03/13 14:15:14;;;;;;;14.43;9.93;;;;;;;;;;5013928;28;20892;-76
2022/03/13 14:17:40;;;;;;;12.50;7.83;;;;;;;;;;5014005;28;20465;-76
2022/03/13 14:20:07;;;;;;;14.47;10.00;;;;;;;;;;5013949;28;20494;-76
2022/03/13 14:22:33;;;;;;;12.93;9.30;;;;;;;;;;5028732;28;20479;-77
2022/03/13 14:25:00;;;;;;;11.77;8.53;;;;;;;;;;5013666;28;20431;-76
2022/03/13 14:27:26;;;;;;;11.07;8.40;;;;;;;;;;5013655;28;20890;-76
2022/03/13 14:29:52;;;;;;;15.30;10.30;;;;;;;;;;5013398;28;20811;-77